Maxwelton, WV

5:18 PM EDT on July 23, 2016 (GMT -0400)
Greenbrier Valley | | Change Station

Elev 2303 ft 37.86 °N, 80.40 °W | Updated 3 minutes ago

Clear
Clear
87 °F
Feels Like 90 °F
N
6
Wind Variable Wind from SW

Today
High -- | Low -- °F
--% Chance of Precip.
Yesterday
High -- | Low -- °F
Precip. -- in
Pressure 30.08 in
Visibility 10.0 miles
Clouds Clear
Heat Index 90 °F
Dew Point 66 °F
Humidity 49%
Rainfall 0.00 in
Snow Depth Not available.
6:17 AM 8:37 PM
Waning Gibbous, 82% visible
METAR KLWB 232115Z AUTO 23005KT 10SM CLR 31/19 A3008 RMK AO2 T03080188
Pressure 30.08 in
Visibility 10.0 miles
Clouds Clear
Heat Index 90 °F
Dew Point 66 °F
Humidity 49%
Rainfall 0.00 in
Snow Depth Not available.
6:17 AM 8:37 PM
Waning Gibbous, 82% visible
METAR KLWB 232115Z AUTO 23005KT 10SM CLR 31/19 A3008 RMK AO2 T03080188

10-Day Weather Forecast

Almanac

Astronomy

Jul. 23, 2016 Rise Set
Actual Time
Civil Twilight
Nautical Twilight
Astronomical Twilight
Moon
Length of Visible Light
Length of Day
Tomorrow will be .
, % of the Moon is Illuminated

Today's Extremes

State Highs State Lows

Community

WunderPhotos

Upload Photos

1,926,927 photos uploaded!

WunderBlog® & News

Nearby

Air Quality

  Air Quality AQ Index Pollutant
Not available.

Snow Depth

Station Depth Elevation

Earthquake Activity

City Distance Mag. Time & Date
Minimum magnitude displayed is 2.5.

Coastal Water Temperatures

Place Temperature

Stations

Nearby Weather Stations

Station Location Temp. Windchill Dew Point Humidity Wind Precip. Elev Updated Type
                   

Watches & Warnings

There are currently no watches in effect.